createdAt,value
2019-01-17T00:00:32.419Z,3.60
2019-01-17T00:03:11.334Z,3.60
2019-01-17T00:05:47.422Z,3.60
2019-01-17T00:08:26.353Z,3.50
2019-01-17T00:10:57.404Z,3.40
2019-01-17T00:13:27.506Z,3.40
2019-01-17T00:15:57.697Z,3.40
2019-01-17T00:18:27.849Z,3.30
2019-01-17T00:21:01.639Z,3.30
2019-01-17T00:23:40.643Z,3.30
2019-01-17T00:26:19.510Z,3.20
2019-01-17T00:28:52.359Z,3.10
2019-01-17T00:31:37.324Z,3.10
2019-01-17T00:34:07.737Z,3.00
2019-01-17T00:36:40.481Z,3.00
2019-01-17T00:39:22.846Z,2.90
2019-01-17T00:41:53.049Z,3.00
2019-01-17T00:44:25.750Z,3.00
2019-01-17T00:46:56.413Z,3.00
2019-01-17T00:49:29.428Z,3.00
2019-01-17T00:52:08.784Z,2.90
2019-01-17T00:54:48.219Z,2.90
2019-01-17T00:57:30.206Z,2.90
2019-01-17T01:00:12.324Z,2.80
2019-01-17T01:02:57.761Z,2.70
2019-01-17T01:05:27.925Z,2.70
2019-01-17T01:08:10.297Z,2.70
2019-01-17T01:10:55.325Z,2.70
2019-01-17T01:13:25.467Z,2.70
2019-01-17T01:16:06.915Z,2.70
2019-01-17T01:18:43.142Z,2.70
2019-01-17T01:21:16.223Z,2.70
2019-01-17T01:24:02.379Z,2.70
2019-01-17T01:26:41.203Z,2.60
2019-01-17T01:29:19.988Z,2.60
2019-01-17T01:31:52.885Z,2.60
2019-01-17T01:34:35.246Z,2.70
2019-01-17T01:37:14.765Z,2.70
2019-01-17T01:39:44.957Z,2.60
2019-01-17T01:42:25.134Z,2.60
2019-01-17T01:45:04.590Z,2.60
2019-01-17T01:47:37.450Z,2.60
2019-01-17T01:50:08.386Z,2.60
2019-01-17T01:52:44.257Z,2.60
2019-01-17T01:55:12.842Z,2.60
2019-01-17T01:57:41.297Z,2.60
2019-01-17T02:00:11.819Z,2.60
2019-01-17T02:02:40.272Z,2.50
2019-01-17T02:05:08.950Z,2.50
2019-01-17T02:07:37.661Z,2.40
2019-01-17T02:10:09.268Z,2.50
2019-01-17T02:12:37.784Z,2.50
2019-01-17T02:15:07.321Z,2.50
2019-01-17T02:17:35.919Z,2.50
2019-01-17T02:20:07.184Z,2.50
2019-01-17T02:22:35.734Z,2.50
2019-01-17T02:25:08.580Z,2.50
2019-01-17T02:27:37.099Z,2.50
2019-01-17T02:30:09.020Z,2.50
2019-01-17T02:32:37.534Z,2.50
2019-01-17T02:35:07.227Z,2.50
2019-01-17T02:37:35.787Z,2.60
2019-01-17T02:40:07.369Z,2.60
2019-01-17T02:42:35.960Z,2.50
2019-01-17T02:45:07.259Z,2.60
2019-01-17T02:47:35.847Z,2.60
2019-01-17T02:50:06.439Z,2.60
2019-01-17T02:52:34.947Z,2.50
2019-01-17T02:55:04.235Z,2.50
2019-01-17T02:57:32.686Z,2.40
2019-01-17T03:00:01.270Z,2.40
2019-01-17T03:02:29.857Z,2.50
2019-01-17T03:04:58.315Z,2.40
2019-01-17T03:07:26.795Z,2.40
2019-01-17T03:09:55.389Z,2.40
2019-01-17T03:12:23.833Z,2.40
2019-01-17T03:14:52.389Z,2.30
2019-01-17T03:17:20.977Z,2.30
2019-01-17T03:19:49.434Z,2.30
2019-01-17T03:22:17.914Z,2.30
2019-01-17T03:24:46.367Z,2.30
2019-01-17T03:27:14.821Z,2.40
2019-01-17T03:29:43.302Z,2.30
2019-01-17T03:32:11.822Z,2.30
2019-01-17T03:34:40.337Z,2.40
2019-01-17T03:37:09.027Z,2.30
2019-01-17T03:39:37.546Z,2.30
2019-01-17T03:42:06.118Z,2.20
2019-01-17T03:44:34.748Z,2.20
2019-01-17T03:47:03.695Z,2.10
2019-01-17T03:49:32.219Z,2.10
2019-01-17T03:52:00.728Z,2.10
2019-01-17T03:54:29.324Z,2.10
2019-01-17T03:56:57.843Z,2.10
2019-01-17T03:59:26.427Z,2.10
2019-01-17T04:01:55.013Z,2.10
2019-01-17T04:04:23.534Z,2.10
2019-01-17T04:06:52.010Z,2.10
2019-01-17T04:09:20.535Z,2.10
2019-01-17T04:11:48.980Z,2.10
2019-01-17T04:14:17.521Z,2.10
2019-01-17T04:16:46.105Z,2.20
2019-01-17T04:19:14.553Z,2.30
2019-01-17T04:21:43.030Z,2.30
2019-01-17T04:24:11.553Z,2.30
2019-01-17T04:26:40.001Z,2.30
2019-01-17T04:29:08.489Z,2.30
2019-01-17T04:31:37.069Z,2.30
2019-01-17T04:34:05.597Z,2.30
2019-01-17T04:36:34.141Z,2.30
2019-01-17T04:39:02.665Z,2.30
2019-01-17T04:41:31.186Z,2.40
2019-01-17T04:43:59.659Z,2.50
2019-01-17T04:46:28.181Z,2.50
2019-01-17T04:48:56.918Z,2.50
2019-01-17T04:51:25.533Z,2.50
2019-01-17T04:53:53.989Z,2.60
2019-01-17T04:56:22.505Z,2.60
2019-01-17T04:58:50.993Z,2.70
2019-01-17T05:01:19.605Z,2.80
2019-01-17T05:03:48.185Z,2.80
2019-01-17T05:06:16.734Z,2.80
2019-01-17T05:08:45.249Z,2.90
2019-01-17T05:11:14.268Z,2.90
2019-01-17T05:13:42.873Z,2.90
2019-01-17T05:16:11.394Z,3.00
2019-01-17T05:18:39.906Z,2.90
2019-01-17T05:21:08.453Z,2.90
2019-01-17T05:23:36.970Z,3.00
2019-01-17T05:26:05.557Z,3.00
2019-01-17T05:28:34.058Z,2.90
2019-01-17T05:31:02.572Z,3.00
2019-01-17T05:33:31.085Z,3.00
2019-01-17T05:35:59.628Z,3.00
2019-01-17T05:38:28.142Z,3.00
2019-01-17T05:40:57.259Z,2.90
2019-01-17T05:43:25.801Z,2.90
2019-01-17T05:45:54.259Z,2.90
2019-01-17T05:48:22.768Z,2.90
2019-01-17T05:50:51.757Z,3.00
2019-01-17T05:53:20.214Z,3.00
2019-01-17T05:55:48.801Z,3.00
2019-01-17T05:58:17.285Z,3.00
2019-01-17T06:00:45.809Z,3.00
2019-01-17T06:03:14.257Z,3.00
2019-01-17T06:05:42.732Z,3.10
2019-01-17T06:08:11.325Z,3.10
2019-01-17T06:10:39.911Z,3.10
2019-01-17T06:13:09.002Z,3.10
2019-01-17T06:15:38.114Z,3.10
2019-01-17T06:18:06.564Z,3.20
2019-01-17T06:20:35.044Z,3.30
2019-01-17T06:23:03.493Z,3.50
2019-01-17T06:25:32.079Z,3.60
2019-01-17T06:28:00.566Z,3.60
2019-01-17T06:30:29.009Z,3.60
2019-01-17T06:32:57.525Z,3.70
2019-01-17T06:35:26.070Z,3.70
2019-01-17T06:37:54.593Z,3.70
2019-01-17T06:40:25.962Z,3.80
2019-01-17T06:42:54.480Z,3.80
2019-01-17T06:45:22.929Z,3.90
2019-01-17T06:47:52.448Z,3.80
2019-01-17T06:50:20.965Z,3.90
2019-01-17T06:52:49.676Z,3.80
2019-01-17T06:55:18.233Z,3.90
2019-01-17T06:57:46.819Z,3.90
2019-01-17T07:00:17.221Z,3.90
2019-01-17T07:02:45.836Z,3.80
2019-01-17T07:05:15.221Z,3.80
2019-01-17T07:07:43.813Z,3.80
2019-01-17T07:10:14.830Z,3.80
2019-01-17T07:12:43.345Z,3.70
2019-01-17T07:15:12.204Z,3.70
2019-01-17T07:17:40.745Z,3.70
2019-01-17T07:20:12.304Z,3.70
2019-01-17T07:22:40.893Z,3.70
2019-01-17T07:25:10.728Z,3.70
2019-01-17T07:27:39.326Z,3.80
2019-01-17T07:30:22.219Z,3.80
2019-01-17T07:32:50.815Z,3.80
2019-01-17T07:35:19.406Z,3.90
2019-01-17T07:37:47.969Z,3.90
2019-01-17T07:40:16.560Z,3.90
2019-01-17T07:42:45.083Z,3.90
2019-01-17T07:45:19.753Z,3.90
2019-01-17T07:47:48.214Z,3.90
2019-01-17T07:50:16.800Z,4.00
2019-01-17T07:52:45.516Z,4.00
2019-01-17T07:55:14.118Z,4.10
2019-01-17T07:57:42.710Z,4.10
2019-01-17T08:00:14.397Z,4.10
2019-01-17T08:02:42.985Z,4.10
2019-01-17T08:05:11.584Z,4.20
2019-01-17T08:07:40.273Z,4.20
2019-01-17T08:10:14.563Z,4.20
2019-01-17T08:12:43.252Z,4.20
2019-01-17T08:15:13.769Z,4.30
2019-01-17T08:17:42.354Z,4.30
2019-01-17T08:20:13.913Z,4.30
2019-01-17T08:22:42.465Z,4.30
2019-01-17T08:25:12.253Z,4.40
2019-01-17T08:27:40.946Z,4.40
2019-01-17T08:30:12.441Z,4.40
2019-01-17T08:32:40.887Z,4.40
2019-01-17T08:35:10.775Z,4.40
2019-01-17T08:37:39.336Z,4.50
2019-01-17T08:40:20.405Z,4.50
2019-01-17T08:42:49.182Z,4.60
2019-01-17T08:45:17.773Z,4.60
2019-01-17T08:47:46.301Z,4.70
2019-01-17T08:50:16.324Z,4.70
2019-01-17T08:52:44.913Z,4.80
2019-01-17T08:55:13.505Z,4.80
2019-01-17T08:57:42.041Z,4.80
2019-01-17T09:00:16.121Z,4.70
2019-01-17T09:02:44.634Z,4.80
2019-01-17T09:05:13.265Z,4.80
2019-01-17T09:07:41.857Z,4.90
2019-01-17T09:10:13.725Z,5.00
2019-01-17T09:12:42.265Z,5.00
2019-01-17T09:15:13.565Z,5.00
2019-01-17T09:17:42.260Z,5.10
2019-01-17T09:20:13.449Z,5.10
2019-01-17T09:22:42.138Z,5.20
2019-01-17T09:25:14.821Z,5.30
2019-01-17T09:27:43.459Z,5.40
2019-01-17T09:30:20.443Z,5.40
2019-01-17T09:32:49.168Z,5.50
2019-01-17T09:35:18.462Z,5.60
2019-01-17T09:37:47.060Z,5.60
2019-01-17T09:40:17.952Z,5.60
2019-01-17T09:42:46.543Z,5.60
2019-01-17T09:45:15.134Z,5.60
2019-01-17T09:47:44.058Z,5.60
2019-01-17T09:50:21.032Z,5.60
2019-01-17T09:52:50.034Z,5.60
2019-01-17T09:55:19.035Z,5.60
2019-01-17T09:57:47.684Z,5.60
2019-01-17T10:00:19.222Z,5.70
2019-01-17T10:02:47.922Z,5.70
2019-01-17T10:05:16.422Z,5.80
2019-01-17T10:07:45.138Z,5.80
2019-01-17T10:10:15.972Z,5.80
2019-01-17T10:12:44.629Z,5.80
2019-01-17T10:15:28.820Z,5.90
2019-01-17T10:18:00.357Z,5.80
2019-01-17T10:20:48.550Z,5.90
2019-01-17T10:23:22.692Z,5.90
2019-01-17T10:25:57.113Z,5.90
2019-01-17T10:28:59.993Z,5.90
2019-01-17T10:31:43.331Z,6.00
2019-01-17T10:34:34.054Z,5.90
2019-01-17T10:37:08.349Z,6.00
2019-01-17T10:39:45.806Z,6.00
2019-01-17T10:42:32.446Z,6.00
2019-01-17T10:45:15.710Z,6.00
2019-01-17T10:48:00.169Z,6.10
2019-01-17T10:50:31.854Z,6.10
2019-01-17T10:53:21.096Z,6.00
2019-01-17T10:56:01.642Z,6.00
2019-01-17T10:58:33.230Z,6.00
2019-01-17T11:01:25.965Z,6.00
2019-01-17T11:04:00.482Z,6.10
2019-01-17T11:06:50.067Z,6.10
2019-01-17T11:09:42.790Z,6.20
2019-01-17T11:12:32.528Z,6.20
2019-01-17T11:15:04.173Z,6.10
2019-01-17T11:17:35.697Z,6.10
2019-01-17T11:20:28.527Z,6.20
2019-01-17T11:23:02.795Z,6.20
2019-01-17T11:25:34.346Z,6.20
2019-01-17T11:28:20.940Z,6.20
2019-01-17T11:30:58.451Z,6.10
2019-01-17T11:33:32.702Z,6.10
2019-01-17T11:36:28.431Z,6.00
2019-01-17T11:39:08.290Z,6.10
2019-01-17T11:42:08.499Z,6.00
2019-01-17T11:45:07.389Z,6.10
2019-01-17T11:47:54.077Z,6.10
2019-01-17T11:50:43.018Z,6.10
2019-01-17T11:53:20.469Z,6.20
2019-01-17T11:56:00.722Z,6.20
2019-01-17T11:58:50.174Z,6.10
2019-01-17T12:01:32.205Z,6.20
2019-01-17T12:04:29.045Z,6.20
2019-01-17T12:06:58.038Z,6.20
2019-01-17T12:09:26.571Z,6.20
2019-01-17T12:11:55.190Z,6.30
2019-01-17T12:14:26.910Z,6.40
2019-01-17T12:16:55.362Z,6.40
2019-01-17T12:19:23.911Z,6.50
2019-01-17T12:21:52.504Z,6.60
2019-01-17T12:24:21.105Z,6.60
2019-01-17T12:26:49.673Z,6.70
2019-01-17T12:29:18.606Z,6.80
2019-01-17T12:31:47.121Z,6.70
2019-01-17T12:34:15.801Z,6.70
2019-01-17T12:36:44.562Z,6.80
2019-01-17T12:39:14.626Z,6.90
2019-01-17T12:41:43.251Z,7.00
2019-01-17T12:44:11.912Z,7.00
2019-01-17T12:46:40.425Z,7.00
2019-01-17T12:49:09.050Z,7.00
2019-01-17T12:51:37.837Z,7.00
2019-01-17T12:54:06.544Z,6.90
2019-01-17T12:56:38.218Z,6.80
2019-01-17T12:59:06.767Z,6.80
2019-01-17T13:01:35.301Z,6.80
2019-01-17T13:04:04.289Z,6.80
2019-01-17T13:06:32.747Z,6.90
2019-01-17T13:09:01.298Z,6.90
2019-01-17T13:11:29.983Z,7.00
2019-01-17T13:13:58.567Z,7.10
2019-01-17T13:16:27.546Z,7.10
2019-01-17T13:18:56.242Z,7.10
2019-01-17T13:21:24.828Z,7.10
2019-01-17T13:23:53.417Z,7.10
2019-01-17T13:26:22.033Z,7.20
2019-01-17T13:28:50.585Z,7.20
2019-01-17T13:31:19.186Z,7.10
2019-01-17T13:33:47.733Z,7.00
2019-01-17T13:36:16.203Z,6.90
2019-01-17T13:38:44.875Z,6.80
2019-01-17T13:41:13.557Z,6.80
2019-01-17T13:43:42.081Z,6.70
2019-01-17T13:46:10.741Z,6.60
2019-01-17T13:48:39.454Z,6.50
2019-01-17T13:51:08.038Z,6.40
2019-01-17T13:53:36.626Z,6.40
2019-01-17T13:56:05.294Z,6.40
2019-01-17T13:58:33.834Z,6.30
2019-01-17T14:01:02.506Z,6.30
2019-01-17T14:03:31.113Z,6.30
2019-01-17T14:05:59.565Z,6.40
2019-01-17T14:08:28.011Z,6.40
2019-01-17T14:10:56.713Z,6.40
2019-01-17T14:13:25.307Z,6.40
2019-01-17T14:15:55.480Z,6.30
2019-01-17T14:18:27.878Z,6.30
2019-01-17T14:20:55.746Z,6.20
2019-01-17T14:23:24.198Z,6.20
2019-01-17T14:25:52.786Z,6.20
2019-01-17T14:28:21.361Z,6.20
2019-01-17T14:30:50.098Z,6.20
2019-01-17T14:33:18.620Z,6.20
2019-01-17T14:35:47.133Z,6.20
2019-01-17T14:38:15.633Z,6.20
2019-01-17T14:40:44.121Z,6.20
2019-01-17T14:43:12.717Z,6.20
2019-01-17T14:45:41.545Z,6.00
2019-01-17T14:48:10.706Z,6.00
2019-01-17T14:50:39.270Z,5.90
2019-01-17T14:53:07.859Z,5.90
2019-01-17T14:55:36.751Z,5.80
2019-01-17T14:58:05.337Z,5.80
2019-01-17T15:00:34.214Z,5.80
2019-01-17T15:03:03.001Z,5.70
2019-01-17T15:05:31.621Z,5.60
2019-01-17T15:08:00.204Z,5.60
2019-01-17T15:10:34.412Z,5.50
2019-01-17T15:13:03.102Z,5.40
2019-01-17T15:15:31.668Z,5.30
2019-01-17T15:18:00.384Z,5.30
2019-01-17T15:20:28.901Z,5.30
2019-01-17T15:22:57.421Z,5.20
2019-01-17T15:25:25.980Z,5.10
2019-01-17T15:27:54.437Z,5.00
2019-01-17T15:30:27.728Z,4.90
2019-01-17T15:32:56.349Z,4.70
2019-01-17T15:35:27.616Z,4.70
2019-01-17T15:37:56.237Z,4.50
2019-01-17T15:40:27.292Z,4.40
2019-01-17T15:42:58.840Z,4.40
2019-01-17T15:45:27.386Z,4.40
2019-01-17T15:47:55.935Z,4.30
2019-01-17T15:50:24.638Z,4.20
2019-01-17T15:52:53.337Z,4.30
2019-01-17T15:55:21.887Z,4.20
2019-01-17T15:57:50.475Z,4.20
2019-01-17T16:00:24.768Z,4.10
2019-01-17T16:02:53.315Z,4.00
2019-01-17T16:05:22.273Z,4.00
2019-01-17T16:07:51.022Z,3.90
2019-01-17T16:10:19.650Z,3.80
2019-01-17T16:12:48.220Z,3.70
2019-01-17T16:15:25.060Z,3.60
2019-01-17T16:17:53.781Z,3.60
2019-01-17T16:20:22.405Z,3.50
2019-01-17T16:22:51.221Z,3.50
2019-01-17T16:25:19.760Z,3.60
2019-01-17T16:27:52.968Z,3.70
2019-01-17T16:30:26.401Z,3.70
2019-01-17T16:32:55.803Z,3.60
2019-01-17T16:35:24.728Z,3.70
2019-01-17T16:37:53.449Z,3.60
2019-01-17T16:40:21.978Z,3.60
2019-01-17T16:42:50.575Z,3.60
2019-01-17T16:45:23.778Z,3.60
2019-01-17T16:47:52.446Z,3.70
2019-01-17T16:50:23.239Z,3.70
2019-01-17T16:52:51.940Z,3.70
2019-01-17T16:55:20.629Z,3.80
2019-01-17T16:57:49.530Z,3.80
2019-01-17T17:00:30.080Z,3.90
2019-01-17T17:02:58.609Z,3.90
2019-01-17T17:05:27.198Z,3.90
2019-01-17T17:07:56.240Z,3.90
2019-01-17T17:10:24.833Z,4.00
2019-01-17T17:12:53.282Z,4.00
2019-01-17T17:15:21.845Z,4.00
2019-01-17T17:17:50.304Z,3.90
2019-01-17T17:20:24.115Z,3.90
2019-01-17T17:22:52.729Z,3.80
2019-01-17T17:25:21.323Z,3.80
2019-01-17T17:27:55.543Z,3.80
2019-01-17T17:30:25.909Z,3.80
2019-01-17T17:32:54.509Z,3.80
2019-01-17T17:35:23.025Z,3.80
2019-01-17T17:37:51.590Z,3.80
2019-01-17T17:40:22.649Z,3.80
2019-01-17T17:42:51.259Z,3.70
2019-01-17T17:45:19.945Z,3.70
2019-01-17T17:47:48.609Z,3.60
2019-01-17T17:50:18.965Z,3.60
2019-01-17T17:52:47.590Z,3.60
2019-01-17T17:55:17.373Z,3.60
2019-01-17T17:57:45.982Z,3.50
2019-01-17T18:00:25.008Z,3.50
2019-01-17T18:02:54.268Z,3.50
2019-01-17T18:05:22.862Z,3.40
2019-01-17T18:07:51.533Z,3.40
2019-01-17T18:10:20.249Z,3.40
2019-01-17T18:12:48.714Z,3.40
2019-01-17T18:15:19.362Z,3.50
2019-01-17T18:17:48.151Z,3.50
2019-01-17T18:20:17.536Z,3.60
2019-01-17T18:22:46.114Z,3.70
2019-01-17T18:25:14.709Z,3.70
2019-01-17T18:27:43.239Z,3.70
2019-01-17T18:30:17.053Z,3.70
2019-01-17T18:32:45.654Z,3.70
2019-01-17T18:35:14.905Z,3.90
2019-01-17T18:37:43.755Z,3.90
2019-01-17T18:40:14.699Z,3.90
2019-01-17T18:42:43.287Z,4.00
2019-01-17T18:45:14.772Z,4.00
2019-01-17T18:47:43.297Z,4.00
2019-01-17T18:50:14.657Z,4.00
2019-01-17T18:52:43.278Z,4.10
2019-01-17T18:55:11.821Z,4.10
2019-01-17T18:57:40.348Z,4.00
2019-01-17T19:00:19.602Z,4.10
2019-01-17T19:02:48.293Z,4.10
2019-01-17T19:05:16.984Z,4.00
2019-01-17T19:07:45.634Z,3.90
2019-01-17T19:10:15.528Z,3.90
2019-01-17T19:12:44.061Z,4.00
2019-01-17T19:15:17.996Z,4.10
2019-01-17T19:17:46.588Z,4.10
2019-01-17T19:20:17.049Z,4.10
2019-01-17T19:22:45.672Z,4.00
2019-01-17T19:25:14.672Z,4.00
2019-01-17T19:27:43.258Z,3.90
2019-01-17T19:30:17.500Z,4.00
2019-01-17T19:32:46.102Z,4.00
2019-01-17T19:35:14.750Z,4.00
2019-01-17T19:37:43.662Z,4.00
2019-01-17T19:40:16.844Z,4.10
2019-01-17T19:42:45.446Z,4.10
2019-01-17T19:45:15.577Z,4.10
2019-01-17T19:47:44.273Z,4.20
2019-01-17T19:50:21.566Z,4.20
2019-01-17T19:52:50.091Z,4.20
2019-01-17T19:55:18.783Z,4.20
2019-01-17T19:57:47.384Z,4.20
2019-01-17T20:00:18.379Z,4.20
2019-01-17T20:02:47.149Z,4.20
2019-01-17T20:05:20.619Z,4.30
2019-01-17T20:07:49.415Z,4.20
2019-01-17T20:10:29.410Z,4.40
2019-01-17T20:12:58.130Z,4.30
2019-01-17T20:15:26.797Z,4.30
2019-01-17T20:17:55.727Z,4.30
2019-01-17T20:20:24.345Z,4.30
2019-01-17T20:22:53.322Z,4.30
2019-01-17T20:25:21.953Z,4.20
2019-01-17T20:27:51.272Z,4.20
2019-01-17T20:30:31.503Z,4.30
2019-01-17T20:33:01.491Z,4.30
2019-01-17T20:35:30.611Z,4.40
2019-01-17T20:37:59.354Z,4.30
2019-01-17T20:40:28.016Z,4.30
2019-01-17T20:42:56.626Z,4.40
2019-01-17T20:45:25.308Z,4.40
2019-01-17T20:47:54.003Z,4.40
2019-01-17T20:50:25.341Z,4.30
2019-01-17T20:52:53.982Z,4.20
2019-01-17T20:55:22.650Z,4.20
2019-01-17T20:57:51.266Z,4.10
2019-01-17T21:00:23.191Z,4.10
2019-01-17T21:02:51.874Z,4.10
2019-01-17T21:05:20.837Z,4.10
2019-01-17T21:07:49.395Z,4.10
2019-01-17T21:10:18.555Z,4.10
2019-01-17T21:12:47.237Z,4.00
2019-01-17T21:15:16.031Z,4.00
2019-01-17T21:17:44.620Z,3.90
2019-01-17T21:20:14.218Z,3.90
2019-01-17T21:22:42.767Z,3.80
2019-01-17T21:25:19.153Z,3.90
2019-01-17T21:27:47.696Z,3.90
2019-01-17T21:30:21.794Z,4.00
2019-01-17T21:32:50.305Z,4.00
2019-01-17T21:35:19.012Z,4.20
2019-01-17T21:37:47.652Z,4.30
2019-01-17T21:40:18.243Z,4.30
2019-01-17T21:42:46.745Z,4.50
2019-01-17T21:45:16.847Z,4.50
2019-01-17T21:47:45.304Z,4.60
2019-01-17T21:50:19.615Z,4.60
2019-01-17T21:52:48.270Z,4.70
2019-01-17T21:55:16.880Z,4.70
2019-01-17T21:57:45.405Z,4.70
2019-01-17T22:00:19.917Z,4.70
2019-01-17T22:02:48.521Z,4.70
2019-01-17T22:05:17.350Z,4.70
2019-01-17T22:07:46.031Z,4.50
2019-01-17T22:10:17.341Z,4.30
2019-01-17T22:12:46.136Z,4.20
2019-01-17T22:15:20.958Z,4.00
2019-01-17T22:17:49.558Z,3.90
2019-01-17T22:20:18.533Z,3.80
2019-01-17T22:22:47.625Z,3.70
2019-01-17T22:25:18.005Z,3.60
2019-01-17T22:27:47.929Z,3.60
2019-01-17T22:30:27.994Z,3.50
2019-01-17T22:32:56.619Z,3.50
2019-01-17T22:35:25.199Z,3.50
2019-01-17T22:37:53.709Z,3.50
2019-01-17T22:40:22.324Z,3.40
2019-01-17T22:42:50.845Z,3.40
2019-01-17T22:45:27.554Z,3.40
2019-01-17T22:47:56.000Z,3.40
2019-01-17T22:50:24.510Z,3.30
2019-01-17T22:52:53.066Z,3.30
2019-01-17T22:55:21.851Z,3.30
2019-01-17T22:57:50.325Z,3.30
2019-01-17T23:00:26.320Z,3.30
2019-01-17T23:02:54.845Z,3.30
2019-01-17T23:05:23.289Z,3.30
2019-01-17T23:07:51.764Z,3.30
2019-01-17T23:10:20.277Z,3.30
2019-01-17T23:12:48.721Z,3.30
2019-01-17T23:15:17.268Z,3.30
2019-01-17T23:17:45.784Z,3.30
2019-01-17T23:20:14.369Z,3.30
2019-01-17T23:22:42.846Z,3.30
2019-01-17T23:25:12.364Z,3.40
2019-01-17T23:27:40.818Z,3.40
2019-01-17T23:30:12.390Z,3.40
2019-01-17T23:32:40.980Z,3.40
2019-01-17T23:35:09.558Z,3.40
2019-01-17T23:37:38.105Z,3.40
2019-01-17T23:40:09.564Z,3.40
2019-01-17T23:42:38.013Z,3.30
2019-01-17T23:45:08.526Z,3.30
2019-01-17T23:47:36.976Z,3.40
2019-01-17T23:50:08.368Z,3.40
2019-01-17T23:52:36.989Z,3.40
2019-01-17T23:55:06.680Z,3.40
2019-01-17T23:57:35.909Z,3.40
